Time;durP1;ratioP1;P1;durP2;ratioP2;P2;SDS_P1;SDS_P2;PMS_P1;PMS_P2;Temp;Humidity;BMP_temperature;BMP_pressure;BME280_temperature;BME280_humidity;BME280_pressure;Samples;Min_cycle;Max_cycle;Signal;HPM_P1;HPM_P2
2022/07/04 00:02:49;;;;;;;6.87;4.58;;;;;;;17.61;58.32;100812.89;1714027;84;21196;-54
2022/07/04 00:05:55;;;;;;;12.23;4.83;;;;;;;17.61;58.53;100817.05;1713982;84;21260;-53
2022/07/04 00:09:01;;;;;;;8.43;4.75;;;;;;;17.62;58.64;100817.36;1714006;84;21235;-54
2022/07/04 00:12:08;;;;;;;7.12;4.40;;;;;;;17.63;58.76;100814.93;1714168;84;21209;-54
2022/07/04 00:15:15;;;;;;;6.05;4.10;;;;;;;17.62;58.85;100815.97;1713997;84;21236;-55
2022/07/04 00:18:21;;;;;;;6.45;3.92;;;;;;;17.63;58.95;100819.09;1714065;84;21219;-55
2022/07/04 00:21:28;;;;;;;7.45;4.05;;;;;;;17.60;58.89;100808.44;1714028;83;21193;-54
2022/07/04 00:24:35;;;;;;;9.15;4.10;;;;;;;17.54;58.86;100807.86;1714087;84;21276;-54
2022/07/04 00:27:42;;;;;;;6.55;4.10;;;;;;;17.46;58.79;100806.16;1713944;84;21292;-54
2022/07/04 00:30:49;;;;;;;5.45;3.80;;;;;;;17.41;58.88;100810.59;1714490;80;21256;-54
2022/07/04 00:33:54;;;;;;;11.85;4.10;;;;;;;17.36;59.03;100815.91;1705931;84;21221;-54
2022/07/04 00:37:00;;;;;;;6.92;3.80;;;;;;;17.34;59.29;100812.48;1705928;84;21347;-54
2022/07/04 00:40:06;;;;;;;7.87;4.33;;;;;;;17.37;59.53;100815.70;1705901;84;21288;-54
2022/07/04 00:43:14;;;;;;;9.23;4.33;;;;;;;17.38;59.65;100815.14;1705926;84;21221;-54
2022/07/04 00:46:19;;;;;;;5.78;3.95;;;;;;;17.38;59.78;100817.39;1705850;84;21785;-54
2022/07/04 00:49:25;;;;;;;9.88;4.08;;;;;;;17.38;59.85;100817.91;1705897;84;21233;-54
2022/07/04 00:52:31;;;;;;;5.55;4.03;;;;;;;17.40;59.91;100819.94;1705871;84;21247;-54
2022/07/04 00:55:39;;;;;;;6.45;4.40;;;;;;;17.38;59.98;100818.77;1705976;84;21320;-54
2022/07/04 00:58:44;;;;;;;6.53;3.67;;;;;;;17.38;60.14;100824.83;1705884;84;21213;-53
2022/07/04 01:01:50;;;;;;;7.85;3.72;;;;;;;17.38;60.24;100824.31;1706014;83;21513;-54
2022/07/04 01:04:56;;;;;;;7.25;3.87;;;;;;;17.39;60.30;100826.55;1705938;84;21347;-54
2022/07/04 01:08:02;;;;;;;7.33;4.10;;;;;;;17.37;60.32;100825.38;1705822;84;21280;-54
2022/07/04 01:11:09;;;;;;;5.80;4.08;;;;;;;17.36;60.31;100824.20;1705890;84;21213;-54
2022/07/04 01:14:14;;;;;;;7.42;3.92;;;;;;;17.33;60.29;100830.16;1705844;84;21205;-54
2022/07/04 01:17:19;;;;;;;8.13;3.35;;;;;;;17.29;60.32;100826.09;1705851;84;21201;-54
2022/07/04 01:20:24;;;;;;;11.18;3.65;;;;;;;17.26;60.36;100830.14;1705840;84;21213;-55
2022/07/04 01:23:30;;;;;;;6.20;4.03;;;;;;;17.22;60.42;100826.63;1705814;84;21205;-53
2022/07/04 01:26:37;;;;;;;5.87;3.62;;;;;;;17.19;60.51;100821.47;1705987;84;21205;-54
2022/07/04 01:29:44;;;;;;;7.42;4.03;;;;;;;17.15;60.52;100824.34;1705753;84;21225;-53
2022/07/04 01:32:50;;;;;;;7.55;4.20;;;;;;;17.08;60.52;100822.07;1706709;81;21288;-53
2022/07/04 01:35:57;;;;;;;8.53;4.22;;;;;;;17.05;60.65;100822.49;1706009;84;21209;-53
2022/07/04 01:39:02;;;;;;;7.05;3.65;;;;;;;17.01;60.62;100815.68;1705856;84;21292;-54
2022/07/04 01:42:08;;;;;;;9.25;3.75;;;;;;;16.96;60.66;100819.08;1705903;84;21225;-54
2022/07/04 01:45:15;;;;;;;5.17;3.85;;;;;;;16.95;60.85;100821.49;1702897;84;21209;-53
2022/07/04 01:48:21;;;;;;;7.17;3.95;;;;;;;16.96;61.04;100815.44;1706025;84;21241;-53
2022/07/04 01:51:26;;;;;;;8.10;4.03;;;;;;;16.95;61.14;100817.89;1705974;84;21229;-54
2022/07/04 01:54:33;;;;;;;5.15;3.75;;;;;;;16.95;61.23;100824.81;1705771;84;21260;-54
2022/07/04 01:57:41;;;;;;;6.03;4.00;;;;;;;16.93;61.14;100825.54;1705926;84;21359;-54
2022/07/04 02:04:12;;;;;;;7.53;4.30;;;;;;;16.89;61.23;100823.70;1705909;84;21228;-54
2022/07/04 02:07:18;;;;;;;6.33;3.58;;;;;;;16.88;61.30;100819.77;1705940;84;21217;-55
2022/07/04 02:10:24;;;;;;;11.10;4.08;;;;;;;16.89;61.44;100832.52;1705786;84;21292;-55
2022/07/04 02:13:30;;;;;;;6.75;3.92;;;;;;;16.92;61.59;100832.14;1705811;84;21244;-54
2022/07/04 02:16:36;;;;;;;6.72;3.92;;;;;;;16.93;61.71;100830.55;1705831;84;21308;-54
2022/07/04 02:19:43;;;;;;;7.47;4.08;;;;;;;16.98;61.79;100824.39;1705926;84;21232;-54
2022/07/04 02:22:50;;;;;;;8.00;4.15;;;;;;;17.01;61.88;100833.66;1705893;84;21265;-54
2022/07/04 02:25:56;;;;;;;8.33;3.92;;;;;;;17.04;61.92;100835.49;1705815;84;21292;-55
2022/07/04 02:29:02;;;;;;;9.05;4.08;;;;;;;17.06;61.86;100839.43;1705810;84;21213;-55
2022/07/04 02:32:09;;;;;;;8.43;4.20;;;;;;;17.07;61.84;100835.59;1705794;84;21228;-55
2022/07/04 02:35:15;;;;;;;5.45;3.95;;;;;;;17.09;61.87;100830.20;1705967;83;21257;-54
2022/07/04 02:38:22;;;;;;;9.58;4.35;;;;;;;17.13;61.93;100826.45;1703556;84;21367;-54
2022/07/04 02:41:29;;;;;;;9.30;5.05;;;;;;;17.20;62.07;100832.88;1702350;84;21239;-55
2022/07/04 02:44:36;;;;;;;7.67;4.45;;;;;;;17.27;62.22;100835.98;1702682;83;21342;-55
2022/07/04 02:47:44;;;;;;;9.73;4.53;;;;;;;17.38;62.36;100833.13;1702255;84;21244;-54
2022/07/04 02:50:50;;;;;;;8.90;4.95;;;;;;;17.47;62.48;100831.38;1702324;84;21369;-55
2022/07/04 02:53:56;;;;;;;9.10;4.35;;;;;;;17.57;62.55;100835.98;1702266;84;21263;-55
2022/07/04 02:57:01;;;;;;;10.48;4.37;;;;;;;17.68;62.64;100837.27;1703265;83;21180;-55
2022/07/04 03:00:09;;;;;;;8.78;4.35;;;;;;;17.77;62.65;100829.94;1702218;84;21243;-55
2022/07/04 03:03:14;;;;;;;10.90;5.33;;;;;;;17.88;62.66;100839.03;1684977;84;21361;-55
2022/07/04 03:06:23;;;;;;;14.15;5.15;;;;;;;17.98;62.67;100837.23;1702369;83;21248;-55
2022/07/04 03:09:28;;;;;;;7.45;4.67;;;;;;;18.06;62.65;100836.98;1703507;83;21275;-55
2022/07/04 03:12:28;;;;;;;6.53;5.08;;;;;;;18.15;62.64;100842.66;1702640;84;21231;-55
2022/07/04 03:15:34;;;;;;;6.92;4.87;;;;;;;18.24;62.68;100842.75;1702906;83;21208;-54
2022/07/04 03:18:43;;;;;;;6.78;4.85;;;;;;;18.32;62.73;100853.62;1702450;84;21255;-54
2022/07/04 03:21:48;;;;;;;9.18;5.72;;;;;;;18.40;62.69;100852.57;1703026;83;21196;-55
2022/07/04 03:24:54;;;;;;;8.68;5.40;;;;;;;18.45;62.68;100848.62;1702391;84;21208;-53
2022/07/04 03:28:01;;;;;;;9.30;5.03;;;;;;;18.51;62.65;100850.00;1702431;84;21184;-53
2022/07/04 03:31:06;;;;;;;6.42;4.78;;;;;;;18.57;62.68;100840.81;1702264;84;21268;-52
2022/07/04 03:34:16;;;;;;;10.45;4.65;;;;;;;18.62;62.69;100838.77;1702477;81;21196;-53
2022/07/04 03:37:25;;;;;;;6.20;4.55;;;;;;;18.70;62.73;100844.09;1677733;85;21278;-52
2022/07/04 03:40:32;;;;;;;8.18;5.33;;;;;;;18.75;62.73;100845.68;1677188;85;21743;-52
2022/07/04 03:43:38;;;;;;;7.35;5.47;;;;;;;18.83;62.72;100850.47;1677404;85;21250;-52
2022/07/04 03:46:45;;;;;;;7.47;5.03;;;;;;;18.88;62.74;100853.45;1677586;85;21379;-53
2022/07/04 03:49:50;;;;;;;8.23;4.65;;;;;;;18.96;62.79;100856.51;1677502;85;21202;-52
2022/07/04 03:52:58;;;;;;;6.03;5.10;;;;;;;19.04;62.83;100851.55;1677521;85;21242;-53
2022/07/04 03:56:03;;;;;;;6.62;5.35;;;;;;;19.14;62.91;100851.95;1677426;85;21250;-53
2022/07/04 03:59:10;;;;;;;8.40;5.05;;;;;;;19.25;62.98;100847.61;1677285;85;21215;-53
2022/07/04 04:02:21;;;;;;;6.62;4.70;;;;;;;19.34;63.05;100844.40;1677405;85;21229;-52
2022/07/04 04:05:27;;;;;;;11.30;5.12;;;;;;;19.45;63.06;100846.17;1677464;85;21222;-52
2022/07/04 04:08:33;;;;;;;7.10;5.40;;;;;;;19.53;63.15;100833.41;1677419;85;21218;-52
2022/07/04 04:11:40;;;;;;;11.90;5.92;;;;;;;19.63;63.19;100838.78;1677331;85;21242;-54
2022/07/04 04:14:49;;;;;;;7.60;5.42;;;;;;;19.75;63.24;100834.76;1677561;85;21285;-53
2022/07/04 04:17:54;;;;;;;6.92;5.22;;;;;;;19.86;63.29;100836.29;1656525;85;21349;-53
2022/07/04 04:21:00;;;;;;;7.17;5.65;;;;;;;19.98;63.27;100826.70;1677050;85;21210;-54
2022/07/04 04:24:07;;;;;;;12.07;6.00;;;;;;;20.11;63.25;100833.51;1677415;85;21230;-54
2022/07/04 04:27:12;;;;;;;10.05;7.10;;;;;;;20.23;63.27;100828.97;1658759;85;21210;-53
2022/07/04 04:30:19;;;;;;;7.40;6.10;;;;;;;20.34;63.33;100824.88;1680211;85;21278;-53
2022/07/04 04:33:26;;;;;;;8.00;6.87;;;;;;;20.49;63.38;100831.48;1628268;87;21324;-54
2022/07/04 04:36:32;;;;;;;8.20;6.10;;;;;;;20.63;63.43;100832.50;1640129;84;21272;-53
2022/07/04 04:39:39;;;;;;;11.65;7.20;;;;;;;20.78;63.51;100830.75;1656367;86;21295;-53
2022/07/04 04:42:45;;;;;;;21.73;7.55;;;;;;;20.92;63.51;100826.72;1673248;85;21222;-53
2022/07/04 04:45:53;;;;;;;10.65;6.95;;;;;;;21.07;63.54;100828.62;1673148;85;21207;-53
2022/07/04 04:49:00;;;;;;;10.35;6.78;;;;;;;21.21;63.57;100831.55;1657418;85;21326;-53
2022/07/04 04:52:11;;;;;;;8.80;7.20;;;;;;;21.36;63.59;100833.92;1647907;86;21310;-53
2022/07/04 04:55:19;;;;;;;10.82;7.55;;;;;;;21.49;63.58;100834.58;1658477;84;22597;-53
2022/07/04 04:58:28;;;;;;;12.23;7.03;;;;;;;21.63;63.60;100830.50;1658389;86;21272;-54
2022/07/04 05:01:34;;;;;;;12.43;7.65;;;;;;;21.76;63.61;100833.67;1663646;84;21288;-53
2022/07/04 05:04:41;;;;;;;10.58;7.42;;;;;;;21.88;63.60;100831.22;1658050;86;21252;-53
2022/07/04 05:07:57;;;;;;;12.10;7.33;;;;;;;22.01;63.63;100829.62;1655672;86;21236;-54
2022/07/04 05:11:08;;;;;;;10.00;7.37;;;;;;;22.12;63.60;100818.16;1652739;86;21296;-54
2022/07/04 05:14:14;;;;;;;11.80;7.65;;;;;;;22.25;63.56;100817.13;1630518;88;21284;-54
2022/07/04 05:17:20;;;;;;;15.65;7.75;;;;;;;22.38;63.58;100819.11;1676276;84;21207;-55
2022/07/04 05:20:25;;;;;;;13.55;8.03;;;;;;;22.51;63.65;100827.25;1677500;83;21220;-56
2022/07/04 05:23:32;;;;;;;11.90;8.70;;;;;;;22.64;63.66;100819.21;1677368;85;21297;-55
2022/07/04 05:26:38;;;;;;;11.10;8.13;;;;;;;22.76;63.60;100815.84;1704239;84;21188;-55
2022/07/04 05:29:45;;;;;;;10.72;8.30;;;;;;;22.86;63.62;100816.95;1704506;84;21584;-55
2022/07/04 05:32:54;;;;;;;13.30;8.40;;;;;;;22.98;63.65;100807.13;1705168;84;21212;-56
2022/07/04 05:36:03;;;;;;;11.03;7.70;;;;;;;23.10;63.64;100807.39;1677211;85;21771;-55
2022/07/04 05:39:08;;;;;;;11.88;7.92;;;;;;;23.20;63.59;100799.77;1712652;83;21222;-56
2022/07/04 05:42:15;;;;;;;12.30;8.00;;;;;;;23.32;63.59;100799.23;1716104;83;21238;-54
2022/07/04 05:45:21;;;;;;;14.30;8.03;;;;;;;23.42;63.58;100798.88;1682706;85;21266;-55
2022/07/04 05:48:21;;;;;;;10.53;8.18;;;;;;;23.55;63.57;100797.72;1700938;84;21223;-54
2022/07/04 05:51:27;;;;;;;10.58;8.03;;;;;;;23.66;63.57;100799.61;1718132;83;21205;-55
2022/07/04 05:54:33;;;;;;;9.90;8.48;;;;;;;23.78;63.54;100796.22;1705735;82;21244;-56
2022/07/04 05:57:40;;;;;;;10.80;7.78;;;;;;;23.89;63.52;100788.30;1727921;82;21811;-55
2022/07/04 06:00:48;;;;;;;11.65;7.53;;;;;;;24.03;63.53;100792.50;1719971;82;21720;-54
2022/07/04 06:03:54;;;;;;;14.10;8.35;;;;;;;24.13;63.47;100789.88;1690017;85;21262;-57
2022/07/04 06:07:02;;;;;;;11.55;8.40;;;;;;;24.25;63.41;100789.23;1718750;83;21528;-55
2022/07/04 06:10:09;;;;;;;9.03;7.40;;;;;;;24.36;63.34;100789.69;1683323;85;21228;-55
2022/07/04 06:13:14;;;;;;;9.33;6.90;;;;;;;24.44;63.26;100785.59;1696878;84;21347;-55
2022/07/04 06:16:20;;;;;;;9.35;6.72;;;;;;;24.54;63.19;100785.22;1733467;82;21208;-54
2022/07/04 06:19:38;;;;;;;12.45;6.75;;;;;;;24.63;63.16;100787.00;1744053;82;22014;-55
2022/07/04 06:22:55;;;;;;;8.55;6.58;;;;;;;24.72;63.10;100787.73;1743620;82;21223;-55
2022/07/04 06:26:06;;;;;;;7.40;6.42;;;;;;;24.82;63.08;100781.43;1744001;82;21210;-55
2022/07/04 06:29:15;;;;;;;12.73;7.10;;;;;;;24.93;63.03;100783.26;1742764;82;21295;-55
2022/07/04 06:32:26;;;;;;;11.65;7.40;;;;;;;25.04;63.04;100781.73;1744035;82;21232;-54
2022/07/04 06:35:54;;;;;;;10.68;7.40;;;;;;;25.15;63.00;100780.48;1744006;82;21413;-55
2022/07/04 06:39:00;;;;;;;8.83;7.08;;;;;;;25.26;62.93;100777.52;1739142;81;21224;-55
2022/07/04 06:42:09;;;;;;;7.95;6.80;;;;;;;25.36;62.86;100781.88;1703158;82;21863;-56
2022/07/04 06:45:18;;;;;;;9.73;7.12;;;;;;;25.45;62.74;100783.09;1700299;84;21232;-54
2022/07/04 06:48:24;;;;;;;9.48;7.03;;;;;;;25.53;62.61;100783.20;1698557;82;21210;-56
2022/07/04 06:51:32;;;;;;;8.10;6.90;;;;;;;25.61;62.54;100782.73;1692603;82;21272;-55
2022/07/04 06:54:41;;;;;;;11.33;7.33;;;;;;;25.72;62.53;100780.32;1697514;83;21204;-57
2022/07/04 06:57:52;;;;;;;8.78;7.20;;;;;;;25.79;62.41;100773.92;1696146;82;21212;-55
2022/07/04 07:00:59;;;;;;;11.93;6.97;;;;;;;25.86;62.29;100773.16;1678321;84;21239;-54
2022/07/04 07:04:08;;;;;;;7.30;5.67;;;;;;;25.94;62.17;100769.28;1701819;84;21204;-53
2022/07/04 07:07:16;;;;;;;13.15;5.58;;;;;;;26.03;62.02;100766.33;1699862;82;21720;-55
2022/07/04 07:10:25;;;;;;;6.67;5.70;;;;;;;26.12;61.88;100767.52;1684746;83;21209;-55
2022/07/04 07:13:35;;;;;;;11.45;5.37;;;;;;;26.23;61.68;100768.44;1693398;83;21267;-55
2022/07/04 07:16:48;;;;;;;10.10;7.75;;;;;;;26.32;61.57;100769.66;1692616;83;21383;-56
2022/07/04 07:20:00;;;;;;;6.55;4.72;;;;;;;26.40;61.39;100769.97;1635971;86;21335;-55
2022/07/04 07:23:11;;;;;;;8.48;5.95;;;;;;;26.47;61.22;100766.94;1704931;82;21909;-55
2022/07/04 07:26:21;;;;;;;6.97;5.00;;;;;;;26.56;61.05;100769.52;1708634;84;21211;-56
2022/07/04 07:29:30;;;;;;;10.20;5.03;;;;;;;26.65;60.92;100769.34;1690629;84;21223;-56
2022/07/04 07:32:38;;;;;;;6.45;4.85;;;;;;;26.72;60.77;100766.30;1689850;82;21676;-56
2022/07/04 07:35:46;;;;;;;6.72;5.08;;;;;;;26.77;60.56;100772.77;1673249;85;21230;-53
2022/07/04 07:38:53;;;;;;;5.75;4.75;;;;;;;26.85;60.43;100772.80;1709654;83;21251;-56
2022/07/04 07:42:00;;;;;;;6.33;5.10;;;;;;;26.92;60.31;100771.46;1719722;83;21451;-56
2022/07/04 07:45:06;;;;;;;7.08;5.72;;;;;;;26.97;60.07;100772.05;1685362;85;21256;-55
2022/07/04 07:48:15;;;;;;;6.55;4.42;;;;;;;27.02;59.91;100772.89;1697898;83;21304;-55
2022/07/04 07:51:24;;;;;;;10.72;5.25;;;;;;;27.09;59.76;100775.45;1719382;83;21199;-56
2022/07/04 07:54:52;;;;;;;7.47;4.90;;;;;;;27.16;59.60;100778.29;1719544;83;21376;-55
2022/07/04 07:58:02;;;;;;;6.15;4.75;;;;;;;27.22;59.42;100777.77;1746457;82;21210;-55
2022/07/04 08:01:08;;;;;;;9.43;6.08;;;;;;;27.28;59.27;100776.14;1703702;84;21221;-55
2022/07/04 08:04:41;;;;;;;5.72;5.08;;;;;;;27.36;59.15;100779.83;1683813;85;21241;-54
2022/07/04 08:07:45;;;;;;;8.85;5.97;;;;;;;27.42;59.03;100775.90;1669182;85;21419;-54
2022/07/04 08:10:56;;;;;;;8.00;5.45;;;;;;;27.51;58.88;100779.85;1684113;85;21193;-56
2022/07/04 08:14:09;;;;;;;7.95;5.15;;;;;;;27.56;58.67;100775.65;1724982;82;21231;-53
2022/07/04 08:17:18;;;;;;;6.55;4.85;;;;;;;27.62;58.47;100775.12;1739396;82;21181;-53
2022/07/04 08:20:28;;;;;;;5.95;5.35;;;;;;;27.68;58.29;100774.85;1685434;84;21206;-54
2022/07/04 08:23:38;;;;;;;8.60;5.80;;;;;;;27.74;58.08;100769.51;1632747;88;21257;-54
2022/07/04 08:26:54;;;;;;;5.58;4.97;;;;;;;27.81;57.86;100767.25;1646175;87;21777;-54
2022/07/04 08:30:02;;;;;;;7.08;5.58;;;;;;;27.84;57.69;100770.91;1646000;87;21348;-55
2022/07/04 08:33:09;;;;;;;9.60;5.65;;;;;;;27.91;57.50;100769.27;1656208;86;21209;-55
2022/07/04 08:36:17;;;;;;;8.05;5.72;;;;;;;27.99;57.36;100766.47;1656668;86;21205;-57
2022/07/04 08:39:26;;;;;;;8.53;6.22;;;;;;;28.08;57.24;100760.55;1656588;86;21500;-54
2022/07/04 08:42:34;;;;;;;7.05;5.40;;;;;;;28.18;57.16;100763.38;1707402;84;21694;-53
2022/07/04 08:45:44;;;;;;;8.20;6.00;;;;;;;28.27;56.92;100770.13;1707674;84;21382;-54
2022/07/04 08:48:59;;;;;;;9.50;6.80;;;;;;;28.31;56.69;100762.78;1712312;82;21205;-53
2022/07/04 08:52:16;;;;;;;7.22;6.00;;;;;;;28.37;56.53;100767.31;1707508;84;21244;-53
2022/07/04 08:58:52;;;;;;;10.05;6.12;;;;;;;28.61;56.42;100759.39;1676712;85;21291;-54
2022/07/04 09:01:59;;;;;;;7.35;6.33;;;;;;;28.75;56.18;100764.70;1681215;84;21224;-55
2022/07/04 09:05:08;;;;;;;6.95;6.25;;;;;;;28.92;55.95;100765.80;1700895;84;21221;-54
2022/07/04 09:08:16;;;;;;;9.20;6.47;;;;;;;29.09;55.73;100762.94;1683784;84;21229;-54
2022/07/04 09:11:25;;;;;;;8.30;6.05;;;;;;;29.28;55.38;100763.69;1702355;84;21209;-53
2022/07/04 09:14:32;;;;;;;7.78;5.83;;;;;;;29.37;54.99;100757.73;1702891;83;21237;-55
2022/07/04 09:17:41;;;;;;;9.33;6.20;;;;;;;29.30;54.66;100762.84;1702780;84;21237;-54
2022/07/04 09:20:50;;;;;;;8.95;6.03;;;;;;;29.23;54.46;100761.73;1702335;84;21233;-55
2022/07/04 09:24:01;;;;;;;9.58;5.75;;;;;;;29.19;54.28;100763.47;1688093;84;21628;-55
2022/07/04 09:27:09;;;;;;;9.30;6.45;;;;;;;29.17;54.20;100765.72;1702632;84;21225;-54
2022/07/04 09:30:20;;;;;;;8.33;5.72;;;;;;;29.03;53.71;100756.17;1688273;84;21360;-55
2022/07/04 09:33:27;;;;;;;6.72;5.67;;;;;;;29.03;53.71;100756.17;1701473;84;21398;-55
2022/07/04 09:36:44;;;;;;;6.95;6.25;;;;;;;29.04;53.79;100759.25;1701824;83;21220;-55
2022/07/04 09:39:52;;;;;;;7.70;6.15;;;;;;;29.17;53.73;100760.94;1701734;84;21280;-55
2022/07/04 09:43:07;;;;;;;7.87;5.42;;;;;;;29.49;53.39;100757.66;1687907;84;21714;-55
2022/07/04 09:46:18;;;;;;;7.60;5.92;;;;;;;29.50;52.98;100757.08;1687111;83;21237;-53
2022/07/04 09:49:23;;;;;;;9.10;6.10;;;;;;;29.50;52.98;100757.08;1695886;84;21814;-56
2022/07/04 09:52:34;;;;;;;6.15;5.53;;;;;;;29.57;53.07;100748.58;1702117;84;21405;-60
2022/07/04 09:55:49;;;;;;;6.75;5.97;;;;;;;29.66;52.73;100748.27;1691231;84;21710;-56
2022/07/04 09:59:06;;;;;;;6.75;6.03;;;;;;;29.84;52.62;100743.91;1721200;82;21213;-55
2022/07/04 10:02:24;;;;;;;7.62;6.00;;;;;;;30.10;52.43;100735.48;1726850;82;21196;-54
2022/07/04 10:05:36;;;;;;;6.92;6.22;;;;;;;30.30;52.20;100739.59;1717025;82;21768;-52
2022/07/04 10:08:42;;;;;;;11.33;6.40;;;;;;;30.44;51.75;100738.59;1691620;84;21220;-52
2022/07/04 10:11:51;;;;;;;10.15;6.47;;;;;;;30.53;51.48;100733.97;1727170;82;21193;-53
2022/07/04 10:14:57;;;;;;;8.25;5.90;;;;;;;30.62;51.26;100727.92;1731575;82;21221;-52
2022/07/04 10:18:03;;;;;;;10.00;6.47;;;;;;;30.84;51.08;100720.93;1710147;83;21193;-53
2022/07/04 10:21:09;;;;;;;11.05;6.58;;;;;;;31.02;50.65;100718.14;1701123;84;21206;-53
2022/07/04 10:24:15;;;;;;;6.72;5.50;;;;;;;31.18;50.55;100716.80;1688284;84;21244;-53
2022/07/04 10:27:23;;;;;;;9.18;6.15;;;;;;;31.42;50.53;100716.21;1675964;85;21618;-57
2022/07/04 10:30:39;;;;;;;7.22;5.28;;;;;;;31.67;50.30;100720.07;1703882;84;21833;-56
2022/07/04 10:33:48;;;;;;;19.05;6.80;;;;;;;31.82;49.87;100717.58;1677109;85;21792;-57
2022/07/04 10:37:00;;;;;;;6.95;5.28;;;;;;;31.87;49.55;100716.11;1661112;86;21308;-55
2022/07/04 10:40:07;;;;;;;6.03;5.47;;;;;;;31.42;48.99;100715.36;1660154;86;21256;-58
2022/07/04 10:43:41;;;;;;;6.58;5.67;;;;;;;31.42;48.99;100715.36;1660826;86;21986;-56
2022/07/04 10:46:57;;;;;;;7.60;5.42;;;;;;;31.07;48.53;100708.75;1632174;88;21235;-55
2022/07/04 10:50:04;;;;;;;7.75;5.75;;;;;;;30.80;48.46;100713.62;1682347;84;21785;-55
2022/07/04 10:53:20;;;;;;;7.22;5.80;;;;;;;30.75;48.60;100709.99;1705996;84;21868;-54
2022/07/04 10:56:35;;;;;;;7.72;5.70;;;;;;;30.82;48.52;100709.92;1709456;82;21237;-54
2022/07/04 10:59:45;;;;;;;9.90;5.47;;;;;;;30.88;48.38;100708.71;1694336;83;21276;-56
2022/07/04 11:02:55;;;;;;;8.53;5.50;;;;;;;30.97;48.36;100707.48;1690553;84;21205;-55
2022/07/04 11:06:02;;;;;;;6.78;5.15;;;;;;;31.08;48.17;100697.13;1689414;85;21228;-55
2022/07/04 11:09:27;;;;;;;6.90;5.85;;;;;;;31.14;47.87;100695.94;1690556;83;21259;-56
2022/07/04 11:12:36;;;;;;;6.78;5.17;;;;;;;31.25;47.76;100685.30;1687316;84;21688;-57
2022/07/04 11:15:48;;;;;;;7.00;5.10;;;;;;;31.43;47.50;100683.09;1692628;83;21228;-57
2022/07/04 11:18:55;;;;;;;6.73;5.87;;;;;;;31.57;47.32;100679.76;1688208;84;21650;-57
2022/07/04 11:22:05;;;;;;;9.15;5.45;;;;;;;31.74;47.18;100686.55;1690267;84;21580;-53
2022/07/04 11:25:11;;;;;;;7.35;5.85;;;;;;;31.79;46.94;100685.63;1658066;86;21284;-53
2022/07/04 11:28:40;;;;;;;6.67;5.40;;;;;;;31.87;46.68;100683.53;1672886;85;21228;-54
2022/07/04 11:31:54;;;;;;;8.28;5.47;;;;;;;31.81;46.43;100673.39;1688605;85;22102;-55
2022/07/04 11:35:03;;;;;;;7.65;5.42;;;;;;;31.83;46.36;100679.59;1671687;85;21741;-52
2022/07/04 11:38:11;;;;;;;6.83;5.17;;;;;;;31.89;46.14;100672.16;1688151;85;21789;-53
2022/07/04 11:45:05;;;;;;;6.25;5.40;;;;;;;32.15;45.63;100666.02;1688511;84;21264;-55
2022/07/04 11:48:12;;;;;;;6.10;5.00;;;;;;;32.24;45.32;100668.42;1690430;84;21711;-54
2022/07/04 11:51:26;;;;;;;7.17;5.42;;;;;;;32.22;45.02;100657.41;1689087;84;21375;-54
2022/07/04 11:54:36;;;;;;;8.40;5.20;;;;;;;32.31;45.00;100649.85;1687862;84;21208;-54
2022/07/04 11:57:57;;;;;;;7.40;5.20;;;;;;;32.41;44.82;100650.27;1673925;85;21184;-54
2022/07/04 12:01:06;;;;;;;7.87;5.20;;;;;;;32.40;44.57;100646.58;1726190;82;21236;-55
2022/07/04 12:04:26;;;;;;;10.13;5.35;;;;;;;32.38;44.39;100645.22;1689814;83;21643;-54
2022/07/04 12:07:35;;;;;;;7.17;5.05;;;;;;;32.41;44.33;100646.86;1687787;84;21252;-53
2022/07/04 12:10:44;;;;;;;5.83;5.08;;;;;;;32.50;44.22;100644.12;1722648;82;21276;-54
2022/07/04 12:13:51;;;;;;;7.03;5.33;;;;;;;32.64;43.96;100639.28;1697288;82;21614;-54
2022/07/04 12:17:25;;;;;;;7.35;5.17;;;;;;;32.73;43.61;100635.39;1715167;82;21220;-53
2022/07/04 12:20:31;;;;;;;6.85;4.80;;;;;;;32.73;43.36;100638.23;1706453;82;21201;-53
2022/07/04 12:23:39;;;;;;;5.60;4.90;;;;;;;32.64;43.00;100632.19;1698871;83;21242;-54
2022/07/04 12:26:56;;;;;;;5.60;5.10;;;;;;;32.49;42.86;100639.61;1703022;81;21674;-53
2022/07/04 12:30:02;;;;;;;7.28;5.95;;;;;;;32.46;42.87;100626.89;1688631;84;21281;-53
2022/07/04 12:33:13;;;;;;;6.67;5.33;;;;;;;32.51;42.71;100622.53;1669687;85;21300;-53
2022/07/04 12:36:20;;;;;;;10.88;5.25;;;;;;;32.51;42.53;100627.39;1672774;85;21762;-54
2022/07/04 12:39:40;;;;;;;6.12;5.35;;;;;;;32.37;42.35;100625.09;1734994;82;21264;-53
2022/07/04 12:42:48;;;;;;;7.50;5.28;;;;;;;32.29;42.27;100628.06;1727792;82;21237;-54
2022/07/04 12:45:57;;;;;;;7.25;5.15;;;;;;;32.30;42.16;100626.89;1655016;86;21265;-54
2022/07/04 12:49:04;;;;;;;6.05;5.22;;;;;;;32.35;42.08;100626.80;1711860;82;21224;-54
2022/07/04 12:52:19;;;;;;;6.33;5.22;;;;;;;32.40;41.96;100632.97;1730405;82;21165;-54
2022/07/04 12:55:26;;;;;;;9.25;5.03;;;;;;;32.31;41.76;100624.34;1735588;82;21217;-54
2022/07/04 12:58:33;;;;;;;12.07;5.33;;;;;;;32.30;41.71;100622.64;1735465;82;21235;-54
2022/07/04 13:01:41;;;;;;;7.92;5.50;;;;;;;32.33;41.63;100619.20;1718284;82;21275;-54
2022/07/04 13:04:48;;;;;;;10.38;4.55;;;;;;;32.37;41.46;100613.19;1729802;83;21220;-55
2022/07/04 13:07:56;;;;;;;6.08;4.70;;;;;;;32.45;41.33;100620.11;1677728;82;21240;-53
2022/07/04 13:14:28;;;;;;;10.18;5.08;;;;;;;32.50;41.03;100610.94;1708943;83;21315;-54
2022/07/04 13:17:36;;;;;;;8.40;5.15;;;;;;;32.60;40.92;100606.45;1703066;83;21237;-53
2022/07/04 13:20:45;;;;;;;5.03;4.50;;;;;;;32.64;40.76;100606.67;1730637;83;21774;-57
2022/07/04 13:23:59;;;;;;;7.10;4.87;;;;;;;32.57;40.63;100602.84;1725339;83;21568;-53
2022/07/04 13:27:09;;;;;;;6.20;4.70;;;;;;;32.48;40.48;100600.48;1704516;83;21303;-54
2022/07/04 13:30:19;;;;;;;7.55;5.55;;;;;;;32.48;40.36;100597.66;1716762;82;21283;-55
2022/07/04 13:33:28;;;;;;;7.10;5.28;;;;;;;32.58;40.19;100591.78;1701601;84;21228;-54
2022/07/04 13:36:36;;;;;;;9.53;6.12;;;;;;;32.73;40.04;100595.69;1710249;83;21797;-54
2022/07/04 13:39:42;;;;;;;7.55;5.45;;;;;;;32.87;39.96;100590.82;1712938;83;21212;-55
2022/07/04 13:42:57;;;;;;;5.92;5.33;;;;;;;32.87;39.94;100598.52;1711184;83;21269;-55
2022/07/04 13:46:05;;;;;;;6.00;5.08;;;;;;;32.83;39.91;100589.80;1738243;82;21192;-54
2022/07/04 13:49:13;;;;;;;6.45;5.17;;;;;;;32.73;39.84;100588.59;1735654;82;21224;-53
2022/07/04 13:52:22;;;;;;;5.80;4.87;;;;;;;32.64;39.77;100583.41;1730895;82;21255;-55
2022/07/04 13:55:30;;;;;;;7.05;5.95;;;;;;;32.61;39.78;100581.22;1716326;82;21252;-53
2022/07/04 13:58:43;;;;;;;5.40;4.90;;;;;;;32.61;39.74;100582.63;1741763;82;21274;-57
2022/07/04 14:01:53;;;;;;;5.92;5.15;;;;;;;32.54;39.60;100584.22;1737036;82;21220;-58
2022/07/04 14:05:00;;;;;;;7.00;5.08;;;;;;;32.35;39.46;100578.61;1732156;82;21240;-57
2022/07/04 14:08:09;;;;;;;7.62;5.10;;;;;;;32.23;39.43;100591.06;1721648;82;21418;-58
2022/07/04 14:11:16;;;;;;;5.47;4.97;;;;;;;32.20;39.39;100580.35;1718821;82;21200;-56
2022/07/04 14:14:26;;;;;;;7.78;5.03;;;;;;;32.19;39.32;100584.92;1708452;83;21296;-55
2022/07/04 14:17:35;;;;;;;5.33;4.67;;;;;;;32.17;39.32;100578.15;1678455;84;21209;-56
2022/07/04 14:20:42;;;;;;;6.53;5.00;;;;;;;32.13;39.19;100588.41;1658936;85;21232;-56
2022/07/04 14:23:52;;;;;;;5.72;5.15;;;;;;;32.00;39.04;100581.58;1665193;85;21588;-57
2022/07/04 14:27:00;;;;;;;4.72;4.28;;;;;;;31.93;39.04;100576.06;1698386;84;21511;-55
2022/07/04 14:30:11;;;;;;;6.28;4.80;;;;;;;31.99;39.02;100581.89;1698256;83;21237;-56
2022/07/04 14:33:17;;;;;;;6.58;5.00;;;;;;;32.03;38.81;100576.45;1689373;84;21256;-55
2022/07/04 14:36:24;;;;;;;4.65;4.25;;;;;;;32.06;38.65;100573.84;1690141;84;21207;-56
2022/07/04 14:39:32;;;;;;;5.78;4.60;;;;;;;32.10;38.50;100574.88;1700506;84;21233;-56
2022/07/04 14:42:40;;;;;;;7.35;4.80;;;;;;;32.17;38.34;100571.06;1692509;84;21236;-56
2022/07/04 14:45:48;;;;;;;5.78;5.12;;;;;;;32.21;38.17;100567.85;1696112;84;21572;-55
2022/07/04 14:49:02;;;;;;;6.05;5.45;;;;;;;32.24;38.11;100572.89;1664091;83;21247;-55
2022/07/04 14:52:08;;;;;;;6.85;4.62;;;;;;;32.21;38.02;100572.10;1663805;84;21245;-54